Airfield :
LOGIN :

Register | Disclaimer

   EN    FR    IT 

 










Legend :    VFR   Marginal VFR   IFR   Intensive IFR   Very Intensive IFR
Visi :
Ceiling :
>= 8 km
>= 3000ft
5 to 8 km
1000 to 3000 ft
1500m to 5 km
500 to 1000 ft
800 to 1500m
200 to 500 ft
< 800m
< 200 ft
Symbols :   Thunderstorms  Fog  Heavy snow  Heavy precipitations  Wind > 20 kt
SIGMETs :     Misc.  Thunderstorms  Icing  Turbulence  Mountain Waves  Volcanic Ashes







- Airport Elevation : 423 ft
- IATA code : PIS
- Download approach charts


LFBI - Poitiers

CURRENT METAR :
  • 181530Z AUTO 19018KT CAVOK 09/04 Q1012 TEMPO 19015G25KT

EXPIRED METARs :
  • 181500Z AUTO 18012KT CAVOK 09/04 Q1012 TEMPO 19015G25KT
  • 181430Z AUTO 18010KT CAVOK 09/04 Q1012 TEMPO 19015G25KT
  • 181400Z AUTO 18011KT CAVOK 10/04 Q1012 TEMPO 19015G25KT
  • 181330Z AUTO 18008KT CAVOK 09/04 Q1012 TEMPO 19015G25KT
  • 181300Z AUTO 17010KT 9999 2100 NSC 09/04 Q1013 TEMPO 19015G25KT

TAF TAF LFBI
Valid from the 18 at 12:00 until the 19 at 12:00 UTC


181100Z 1812/1912 16010KT CAVOK
PROB40
TEMPO 1813/1820 19015G25KT
TEMPO 1820/1824 21015G30KT 4000 -RA OVC010
BECMG 1820/1822 20013KT
PROB40
TEMPO 1902/1906 BKN008
TEMPO 1907/1910 4000 SHRA FEW020CB BKN030TCU
No reported NOTAMs for that airfield.
3 SIGMETs reported for the Bordeaux FIR (LFBB) :
 
Severe turbulence
LFBB SIGMET 6 VALID 181600/181900 LFPW
LFBB BORDEAUX FIR/UIR SEV TURB FCST WI N4230 E00030 - N4300 W00145 - N4330 W00145 - N4300 E00045 - N4230 E00030 SFC/FL120 STNR WKN=
Severe turbulence
LFBB SIGMET 5 VALID 181300/181600 LFPW
LFBB BORDEAUX FIR/UIR SEV TURB FCST WI N4415 E00245 - N4300 E00230 - N4330 E00100 - N4345 E00115 - N4430 E00230 - N4415 E00245 SFC/FL060 STNR NC=
Severe turbulence
LFBB SIGMET 4 VALID 181200/181600 LFPW
LFBB BORDEAUX FIR/UIR SEV TURB FCST WI N4230 E00045 - N4300 W00145 - N4330 W00145 - N4300 E00045 - N4230 E00045 SFC/FL120 STNR NC=



MET'MAP, your aeronautical weather chart ! - Copyright ORBIFLY December 2007 - Disclaimer

ORBIFLY MET'MAP TEAM :

Programming & Development : Alexandra Zaïnal
Concept & Development : Baudouin d'Aumeries
Co-Development & Prog : Marc-Olivier Méhu
Technical & hardware support : Manuel Goepfert

Contact : metmap@orbifly.com




SOURCES & CREDITS :

   NOAA